Time;durP1;ratioP1;P1;durP2;ratioP2;P2;SDS_P1;SDS_P2;PMS_P1;PMS_P2;Temp;Humidity;BMP_temperature;BMP_pressure;BME280_temperature;BME280_humidity;BME280_pressure;Samples;Min_cycle;Max_cycle;Signal;HPM_P1;HPM_P2
2023/02/04 00:01:44;;;;;;;16.90;16.00;;;10.90;99.90;;;;;;5014959;28;20403;-81
2023/02/04 00:04:11;;;;;;;16.25;15.27;;;10.90;99.90;;;;;;5015009;28;20053;-81
2023/02/04 00:06:37;;;;;;;15.93;14.93;;;10.90;99.90;;;;;;5009139;28;20164;-81
2023/02/04 00:09:04;;;;;;;15.80;14.90;;;10.90;99.90;;;;;;5013786;28;20056;-81
2023/02/04 00:11:30;;;;;;;15.60;14.82;;;10.80;99.90;;;;;;5014246;28;20037;-81
2023/02/04 00:13:56;;;;;;;16.63;15.63;;;10.80;99.90;;;;;;5014172;28;20030;-81
2023/02/04 00:16:22;;;;;;;15.68;14.77;;;10.80;99.90;;;;;;5017020;28;20037;-81
2023/02/04 00:18:48;;;;;;;14.55;13.85;;;10.80;99.90;;;;;;5034556;28;20028;-81
2023/02/04 00:21:14;;;;;;;14.98;14.18;;;10.70;99.90;;;;;;5030123;28;20378;-81
2023/02/04 00:23:40;;;;;;;14.70;13.43;;;10.80;99.90;;;;;;5013685;28;20041;-81
2023/02/04 00:26:06;;;;;;;14.52;13.63;;;10.80;99.90;;;;;;5034791;28;20049;-81
2023/02/04 00:28:33;;;;;;;14.63;13.73;;;10.70;99.90;;;;;;5031564;28;20049;-81
2023/02/04 00:30:59;;;;;;;14.60;13.65;;;10.60;99.90;;;;;;4989683;28;20041;-81
2023/02/04 00:33:25;;;;;;;15.23;14.30;;;10.70;99.90;;;;;;4988933;28;20033;-81
2023/02/04 00:35:51;;;;;;;14.80;13.85;;;10.70;99.90;;;;;;4993963;28;20033;-81
2023/02/04 00:38:17;;;;;;;14.43;13.63;;;10.80;99.90;;;;;;4995223;28;20026;-81
2023/02/04 00:40:43;;;;;;;14.73;13.80;;;10.70;99.90;;;;;;5013214;28;20021;-81
2023/02/04 00:43:09;;;;;;;14.48;13.57;;;10.60;99.90;;;;;;5012544;28;20383;-81
2023/02/04 00:45:35;;;;;;;15.10;14.10;;;10.60;99.90;;;;;;4988764;28;20049;-81
2023/02/04 00:48:01;;;;;;;15.15;14.25;;;10.60;99.90;;;;;;4994703;28;20030;-81
2023/02/04 00:50:27;;;;;;;14.15;13.32;;;10.60;99.90;;;;;;4989347;28;20033;-81
2023/02/04 00:52:53;;;;;;;14.60;13.70;;;10.40;99.90;;;;;;5014870;28;20037;-81
2023/02/04 00:55:19;;;;;;;15.57;14.57;;;10.40;99.90;;;;;;4997039;28;20034;-81
2023/02/04 00:57:46;;;;;;;15.23;14.23;;;10.50;99.90;;;;;;4994903;28;20022;-81
2023/02/04 01:00:13;;;;;;;15.15;14.15;;;10.40;99.90;;;;;;4996071;28;20030;-81
2023/02/04 01:02:39;;;;;;;15.90;14.90;;;10.40;99.90;;;;;;4997270;28;20033;-81
2023/02/04 01:05:07;;;;;;;16.88;15.77;;;10.40;99.90;;;;;;4995942;28;20042;-81
2023/02/04 01:07:33;;;;;;;17.08;16.00;;;10.50;99.90;;;;;;4996736;28;20056;-81
2023/02/04 01:09:59;;;;;;;16.30;15.40;;;10.60;99.90;;;;;;4995170;28;20049;-81
2023/02/04 01:12:26;;;;;;;15.70;14.80;;;10.50;99.90;;;;;;5012075;28;20026;-81
2023/02/04 01:14:53;;;;;;;16.30;15.35;;;10.50;99.90;;;;;;4979178;28;20467;-81
2023/02/04 01:17:20;;;;;;;16.08;15.07;;;10.50;99.90;;;;;;4992751;28;20042;-81
2023/02/04 01:19:46;;;;;;;17.05;15.75;;;10.30;99.90;;;;;;4993378;28;20030;-81
2023/02/04 01:22:12;;;;;;;16.27;15.27;;;10.30;99.90;;;;;;4994113;28;20026;-81
2023/02/04 01:24:38;;;;;;;16.42;15.23;;;10.20;99.90;;;;;;4992658;28;20045;-81
2023/02/04 01:27:04;;;;;;;17.73;16.45;;;10.30;99.90;;;;;;4995671;28;20041;-81
2023/02/04 01:29:31;;;;;;;17.52;16.52;;;10.30;99.90;;;;;;4995472;28;20467;-81
2023/02/04 01:31:57;;;;;;;18.08;16.98;;;10.30;99.90;;;;;;4994400;28;20029;-81
2023/02/04 01:34:24;;;;;;;18.50;17.30;;;10.40;99.90;;;;;;5015141;28;20052;-81
2023/02/04 01:36:51;;;;;;;18.98;17.88;;;10.30;99.90;;;;;;5032632;28;20476;-81
2023/02/04 01:39:17;;;;;;;18.33;17.33;;;10.30;99.90;;;;;;5003315;28;20030;-81
2023/02/04 01:41:43;;;;;;;18.52;17.40;;;10.30;99.90;;;;;;5028784;28;20132;-81
2023/02/04 01:44:09;;;;;;;19.48;18.27;;;10.20;99.90;;;;;;5014835;28;20041;-81
2023/02/04 01:46:36;;;;;;;20.58;19.23;;;10.20;99.90;;;;;;4997159;28;20418;-81
2023/02/04 01:49:03;;;;;;;20.45;19.25;;;10.20;99.90;;;;;;4998471;28;20033;-81
2023/02/04 01:51:30;;;;;;;20.83;19.40;;;10.30;99.90;;;;;;5033489;28;20033;-80
2023/02/04 01:53:57;;;;;;;19.88;18.73;;;10.40;99.90;;;;;;5015236;28;20482;-81
2023/02/04 01:56:27;;;;;;;21.13;19.77;;;10.30;99.90;;;;;;5014906;28;20029;-80
2023/02/04 01:58:54;;;;;;;21.50;20.02;;;10.30;99.90;;;;;;4998719;28;20037;-81
2023/02/04 02:01:42;;;;;;;20.90;19.52;;;10.30;99.90;;;;;;5011555;28;20050;-81
2023/02/04 02:04:13;;;;;;;21.50;20.13;;;10.30;99.90;;;;;;5005129;28;20054;-81
2023/02/04 02:06:43;;;;;;;21.30;19.90;;;10.30;99.90;;;;;;5020043;28;20037;-81
2023/02/04 02:09:09;;;;;;;20.27;19.08;;;10.20;99.90;;;;;;5015272;28;20026;-81
2023/02/04 02:11:35;;;;;;;20.08;18.98;;;10.20;99.90;;;;;;5010874;28;20045;-81
2023/02/04 02:14:01;;;;;;;21.13;19.75;;;10.20;99.90;;;;;;5014978;28;20041;-81
2023/02/04 02:16:27;;;;;;;20.15;18.95;;;10.20;99.90;;;;;;5011454;28;20038;-81
2023/02/04 02:18:54;;;;;;;20.60;19.40;;;10.10;99.90;;;;;;5011245;28;20034;-81
2023/02/04 02:21:38;;;;;;;21.30;19.95;;;10.10;99.90;;;;;;5009704;28;20032;-81
2023/02/04 02:24:25;;;;;;;20.58;19.17;;;10.20;99.90;;;;;;5005112;28;20038;-81
2023/02/04 02:26:52;;;;;;;20.30;19.00;;;10.10;99.90;;;;;;4991867;28;20045;-81
2023/02/04 02:29:18;;;;;;;20.05;18.85;;;10.10;99.90;;;;;;4994641;28;21229;-81
2023/02/04 02:31:44;;;;;;;18.45;17.35;;;10.10;99.90;;;;;;4995994;28;20040;-81
2023/02/04 02:34:11;;;;;;;18.10;16.90;;;10.10;99.90;;;;;;4994768;28;20026;-81
2023/02/04 02:36:37;;;;;;;16.20;15.20;;;10.10;99.90;;;;;;4997101;28;20041;-81
2023/02/04 02:39:03;;;;;;;15.00;14.10;;;10.00;99.90;;;;;;4986377;28;20025;-81
2023/02/04 02:41:30;;;;;;;14.52;13.75;;;9.90;99.90;;;;;;5011177;28;20041;-81
2023/02/04 02:43:56;;;;;;;14.70;13.68;;;9.90;99.90;;;;;;5011064;28;20471;-81
2023/02/04 02:46:22;;;;;;;13.27;12.48;;;9.90;99.90;;;;;;5012382;28;20047;-81
2023/02/04 02:48:48;;;;;;;13.57;12.57;;;9.90;99.90;;;;;;5010938;28;20471;-81
2023/02/04 02:51:14;;;;;;;14.20;13.25;;;9.80;99.90;;;;;;5019962;28;20025;-81
2023/02/04 02:53:40;;;;;;;14.77;13.68;;;9.80;99.90;;;;;;5014724;28;20030;-81
2023/02/04 02:56:07;;;;;;;15.88;14.75;;;9.90;99.90;;;;;;5014781;28;20026;-81
2023/02/04 02:58:35;;;;;;;15.50;14.40;;;9.90;99.90;;;;;;5014071;28;20022;-81
2023/02/04 03:01:02;;;;;;;13.50;12.75;;;10.00;99.90;;;;;;4998418;28;20387;-81
2023/02/04 03:03:36;;;;;;;13.57;12.75;;;10.00;99.90;;;;;;4975205;28;20038;-80
2023/02/04 03:06:11;;;;;;;13.43;12.52;;;10.00;99.90;;;;;;5003508;28;20046;-81
2023/02/04 03:08:37;;;;;;;13.57;12.77;;;9.90;99.90;;;;;;4972376;28;20356;-81
2023/02/04 03:11:03;;;;;;;14.52;13.52;;;9.90;99.90;;;;;;5004747;28;20038;-81
2023/02/04 03:13:30;;;;;;;13.40;12.48;;;10.00;99.90;;;;;;4973191;28;20035;-81
2023/02/04 03:15:56;;;;;;;13.82;13.02;;;10.00;99.90;;;;;;4977057;28;20035;-81
2023/02/04 03:18:22;;;;;;;14.15;13.15;;;10.10;99.90;;;;;;4987046;28;20042;-81
2023/02/04 03:20:48;;;;;;;14.45;13.45;;;10.10;99.90;;;;;;4997357;28;20030;-81
2023/02/04 03:23:14;;;;;;;14.77;13.73;;;10.10;99.90;;;;;;4991814;28;20046;-81
2023/02/04 03:25:40;;;;;;;14.77;13.77;;;10.00;99.90;;;;;;5008309;28;20037;-81
2023/02/04 03:28:07;;;;;;;14.10;13.07;;;10.00;99.90;;;;;;5010834;28;20037;-81
2023/02/04 03:30:33;;;;;;;13.98;12.98;;;10.00;99.90;;;;;;4991732;28;20033;-81
2023/02/04 03:32:59;;;;;;;14.13;13.23;;;10.00;99.90;;;;;;5007510;28;20038;-81
2023/02/04 03:35:26;;;;;;;14.88;13.77;;;10.00;99.90;;;;;;4992988;28;20034;-81
2023/02/04 03:37:52;;;;;;;14.02;13.13;;;10.00;99.90;;;;;;5018491;28;20030;-81
2023/02/04 03:40:18;;;;;;;14.50;13.32;;;9.90;99.90;;;;;;5011518;28;20026;-80
2023/02/04 03:42:44;;;;;;;15.10;13.82;;;9.90;99.90;;;;;;4993801;28;20038;-80
2023/02/04 03:45:10;;;;;;;14.50;13.50;;;9.90;99.90;;;;;;5002375;28;20046;-80
2023/02/04 03:47:36;;;;;;;14.35;13.45;;;9.90;99.90;;;;;;5008349;28;20518;-80
2023/02/04 03:50:03;;;;;;;14.25;13.13;;;9.90;99.90;;;;;;4991027;28;20035;-80
2023/02/04 03:52:29;;;;;;;14.70;13.48;;;9.90;99.90;;;;;;5000426;28;20126;-81
2023/02/04 03:54:55;;;;;;;14.63;13.55;;;9.90;99.90;;;;;;5026704;28;20041;-81
2023/02/04 03:57:21;;;;;;;15.25;14.00;;;9.90;99.90;;;;;;5010217;28;20502;-81
2023/02/04 03:59:47;;;;;;;15.38;14.10;;;10.00;99.90;;;;;;5012849;28;20030;-81
2023/02/04 04:02:14;;;;;;;14.73;13.73;;;10.10;99.90;;;;;;5014114;28;20041;-81
2023/02/04 04:04:40;;;;;;;15.32;14.02;;;10.10;99.90;;;;;;5015306;28;20499;-81
2023/02/04 04:07:06;;;;;;;15.43;14.00;;;10.00;99.90;;;;;;5015474;28;20046;-82
2023/02/04 04:09:32;;;;;;;14.52;13.40;;;9.90;99.90;;;;;;5014362;28;20049;-82
2023/02/04 04:11:58;;;;;;;14.73;13.63;;;9.90;99.90;;;;;;4996488;28;20042;-81
2023/02/04 04:14:25;;;;;;;14.65;13.68;;;9.90;99.90;;;;;;5011275;28;20040;-81
2023/02/04 04:16:51;;;;;;;13.43;12.43;;;9.80;99.90;;;;;;5010319;28;20041;-81
2023/02/04 04:19:17;;;;;;;14.27;13.38;;;9.80;99.90;;;;;;4996001;28;20462;-81
2023/02/04 04:21:43;;;;;;;15.35;14.05;;;9.80;99.90;;;;;;5011701;28;20044;-81
2023/02/04 04:24:09;;;;;;;14.88;13.80;;;9.90;99.90;;;;;;4994189;28;20026;-82
2023/02/04 04:26:35;;;;;;;14.60;13.50;;;9.80;99.90;;;;;;4995280;28;20039;-82
2023/02/04 04:29:01;;;;;;;14.15;13.10;;;9.80;99.90;;;;;;5001627;28;20077;-81
2023/02/04 04:31:27;;;;;;;14.45;13.48;;;9.90;99.90;;;;;;4993740;28;20031;-82
2023/02/04 04:33:53;;;;;;;15.18;13.98;;;10.00;99.90;;;;;;4995408;28;20395;-81
2023/02/04 04:36:19;;;;;;;14.88;13.65;;;9.90;99.90;;;;;;4994329;28;20038;-81
2023/02/04 04:38:45;;;;;;;15.18;13.70;;;9.80;99.90;;;;;;5002003;28;20034;-83
2023/02/04 04:41:11;;;;;;;14.52;13.52;;;9.80;99.90;;;;;;5013756;28;20034;-82
2023/02/04 04:43:38;;;;;;;15.05;14.05;;;9.70;99.90;;;;;;5013024;28;20037;-81
2023/02/04 04:46:04;;;;;;;15.13;13.90;;;9.70;99.90;;;;;;5022405;28;20037;-82
2023/02/04 04:48:30;;;;;;;13.95;13.05;;;9.80;99.90;;;;;;5017090;28;20025;-81
2023/02/04 04:50:57;;;;;;;14.43;13.32;;;9.80;99.90;;;;;;5017092;28;20032;-82
2023/02/04 04:53:23;;;;;;;15.57;14.27;;;9.80;99.90;;;;;;5016634;28;20030;-81
2023/02/04 04:55:49;;;;;;;14.48;13.38;;;9.70;99.90;;;;;;5016245;28;20478;-82
2023/02/04 04:58:15;;;;;;;15.13;14.13;;;9.70;99.90;;;;;;4994782;28;20045;-81
2023/02/04 05:00:41;;;;;;;15.18;14.18;;;9.80;99.90;;;;;;5008461;28;20061;-82
2023/02/04 05:03:07;;;;;;;14.27;13.10;;;9.80;99.90;;;;;;4993291;28;20489;-82
2023/02/04 05:05:38;;;;;;;14.48;13.38;;;9.80;99.90;;;;;;4993548;28;20058;-82
2023/02/04 05:08:06;;;;;;;14.38;13.48;;;9.80;99.90;;;;;;4993316;28;20464;-81
2023/02/04 05:10:32;;;;;;;14.35;13.35;;;9.80;99.90;;;;;;4993039;28;20057;-81
2023/02/04 05:12:58;;;;;;;14.45;13.35;;;9.80;99.90;;;;;;5002979;28;20037;-81
2023/02/04 05:15:24;;;;;;;14.23;13.13;;;9.70;99.90;;;;;;4995772;28;20049;-82
2023/02/04 05:17:51;;;;;;;14.60;13.73;;;9.80;99.90;;;;;;5013026;28;20018;-83
2023/02/04 05:20:17;;;;;;;14.88;13.77;;;9.90;99.90;;;;;;5013060;28;20029;-81
2023/02/04 05:22:43;;;;;;;15.52;14.52;;;9.90;99.90;;;;;;4996162;28;20607;-81
2023/02/04 05:25:10;;;;;;;15.90;14.50;;;9.90;99.90;;;;;;5011575;28;20034;-81
2023/02/04 05:27:36;;;;;;;15.40;14.40;;;9.90;99.90;;;;;;4995842;28;20513;-81
2023/02/04 05:30:02;;;;;;;15.57;14.43;;;10.00;99.90;;;;;;4996046;28;20030;-81
2023/02/04 05:32:28;;;;;;;15.63;14.57;;;10.00;99.90;;;;;;4995817;28;20402;-82
2023/02/04 05:34:54;;;;;;;15.75;14.57;;;9.90;99.90;;;;;;4995759;28;20041;-82
2023/02/04 05:37:20;;;;;;;15.50;14.45;;;9.90;99.90;;;;;;5020274;28;20423;-83
2023/02/04 05:39:46;;;;;;;14.95;13.95;;;10.00;99.90;;;;;;5025736;28;20029;-83
2023/02/04 05:42:12;;;;;;;15.02;13.93;;;10.10;99.90;;;;;;5011276;28;20053;-83
2023/02/04 05:44:39;;;;;;;15.30;14.27;;;10.10;99.90;;;;;;5006801;28;20479;-82
2023/02/04 05:47:05;;;;;;;15.90;15.00;;;10.10;99.90;;;;;;5008333;28;20045;-82
2023/02/04 05:49:31;;;;;;;16.02;15.13;;;10.10;99.90;;;;;;5009295;28;20027;-82
2023/02/04 05:51:57;;;;;;;18.33;17.23;;;10.20;99.90;;;;;;5000703;28;20026;-82
2023/02/04 05:54:23;;;;;;;18.67;17.48;;;10.10;99.90;;;;;;5010649;28;20038;-82
2023/02/04 05:56:50;;;;;;;18.38;17.38;;;10.00;99.90;;;;;;5009859;28;20034;-83
2023/02/04 05:59:16;;;;;;;18.15;17.05;;;10.00;99.90;;;;;;5011653;28;20029;-82
2023/02/04 06:01:43;;;;;;;18.52;17.23;;;10.00;99.90;;;;;;5006631;28;20045;-83
2023/02/04 06:04:09;;;;;;;18.30;17.38;;;10.10;99.90;;;;;;4992778;28;20491;-82
2023/02/04 06:06:35;;;;;;;18.83;17.65;;;10.00;99.90;;;;;;5019503;28;20517;-82
2023/02/04 06:09:01;;;;;;;18.35;17.15;;;10.10;99.90;;;;;;4999571;28;20034;-82
2023/02/04 06:11:27;;;;;;;17.00;16.00;;;10.10;99.90;;;;;;4989842;28;20061;-82
2023/02/04 06:13:53;;;;;;;19.00;17.92;;;10.00;99.90;;;;;;5003724;28;20044;-82
2023/02/04 06:16:19;;;;;;;19.15;18.05;;;9.90;99.90;;;;;;5010728;28;20033;-83
2023/02/04 06:18:46;;;;;;;18.27;17.33;;;9.90;99.90;;;;;;5010802;28;20030;-83
2023/02/04 06:21:12;;;;;;;18.67;17.67;;;9.90;99.90;;;;;;4994209;28;20048;-83
2023/02/04 06:23:38;;;;;;;19.52;18.42;;;9.90;99.90;;;;;;5011376;28;20086;-83
2023/02/04 06:26:04;;;;;;;20.58;19.33;;;9.90;99.90;;;;;;4994097;28;20046;-83
2023/02/04 06:28:30;;;;;;;18.23;17.17;;;10.00;99.90;;;;;;5011958;28;20478;-83
2023/02/04 06:30:56;;;;;;;19.35;18.00;;;10.00;99.90;;;;;;5012397;28;20044;-83
2023/02/04 06:33:23;;;;;;;18.27;17.17;;;10.00;99.90;;;;;;5011513;28;20395;-82
2023/02/04 06:35:49;;;;;;;18.85;17.65;;;9.90;99.90;;;;;;5012444;28;20038;-82
2023/02/04 06:38:15;;;;;;;19.25;18.05;;;9.90;99.90;;;;;;5026004;28;20061;-82
2023/02/04 06:40:42;;;;;;;18.13;17.02;;;9.90;99.90;;;;;;5011504;28;20387;-83
2023/02/04 06:43:08;;;;;;;17.05;16.05;;;9.90;99.90;;;;;;5011802;28;20368;-83
2023/02/04 06:45:34;;;;;;;15.80;14.80;;;10.00;99.90;;;;;;5006702;28;20052;-83
2023/02/04 06:48:00;;;;;;;15.90;14.90;;;10.00;99.90;;;;;;4991758;28;20038;-82
2023/02/04 06:50:26;;;;;;;16.15;15.25;;;10.10;99.90;;;;;;4975102;28;20046;-83
2023/02/04 06:52:52;;;;;;;15.10;14.20;;;10.00;99.90;;;;;;5003848;28;20482;-83
2023/02/04 06:55:19;;;;;;;15.98;15.07;;;10.10;99.90;;;;;;4995531;28;20035;-82
2023/02/04 06:57:45;;;;;;;15.95;15.02;;;10.10;99.90;;;;;;5012090;28;20403;-82
2023/02/04 07:00:12;;;;;;;14.57;13.52;;;10.10;99.90;;;;;;5010587;28;20037;-82
2023/02/04 07:02:38;;;;;;;14.43;13.52;;;10.00;99.90;;;;;;5011239;28;20049;-83
2023/02/04 07:05:05;;;;;;;14.85;13.95;;;10.00;99.90;;;;;;5010752;28;20413;-83
2023/02/04 07:07:31;;;;;;;13.93;13.13;;;9.90;99.90;;;;;;4994867;28;20050;-87
2023/02/04 07:09:57;;;;;;;15.05;14.05;;;9.90;99.90;;;;;;4996759;28;20034;-87
2023/02/04 07:12:23;;;;;;;14.85;13.95;;;9.90;99.90;;;;;;5008044;28;20048;-87
2023/02/04 07:14:49;;;;;;;14.20;13.30;;;10.00;99.90;;;;;;5002720;28;20483;-89
2023/02/04 07:17:15;;;;;;;15.68;14.60;;;10.00;99.90;;;;;;5005591;28;20049;-87
2023/02/04 07:19:41;;;;;;;16.30;15.07;;;10.00;99.90;;;;;;4994508;28;20392;-88
2023/02/04 07:22:07;;;;;;;15.32;14.40;;;10.00;99.90;;;;;;5012424;28;20041;-89
2023/02/04 07:24:33;;;;;;;15.70;14.50;;;10.00;99.90;;;;;;5012079;28;20026;-87
2023/02/04 07:26:59;;;;;;;15.70;14.73;;;10.00;99.90;;;;;;4995027;28;20038;-87
2023/02/04 07:29:25;;;;;;;15.15;14.18;;;10.00;99.90;;;;;;5001808;28;20391;-88
2023/02/04 07:31:52;;;;;;;15.13;13.93;;;9.90;99.90;;;;;;5010054;28;20030;-89
2023/02/04 07:34:18;;;;;;;15.07;14.05;;;10.00;99.90;;;;;;4999081;28;20033;-87
2023/02/04 07:36:44;;;;;;;15.45;14.32;;;9.90;99.90;;;;;;4981602;28;20069;-88
2023/02/04 07:39:10;;;;;;;15.98;14.68;;;9.90;99.90;;;;;;5004863;28;20482;-88
2023/02/04 07:41:36;;;;;;;15.52;14.43;;;9.80;99.90;;;;;;5003421;28;20041;-88
2023/02/04 07:44:03;;;;;;;15.63;14.63;;;9.90;99.90;;;;;;5016007;28;20467;-89
2023/02/04 07:46:29;;;;;;;15.50;14.48;;;9.80;99.90;;;;;;5012386;28;20045;-90
2023/02/04 07:48:55;;;;;;;15.18;14.07;;;9.80;99.90;;;;;;4995616;28;20037;-90
2023/02/04 07:51:21;;;;;;;15.35;14.43;;;9.80;99.90;;;;;;4995261;28;20057;-90
2023/02/04 07:53:47;;;;;;;15.50;14.45;;;9.90;99.90;;;;;;5001347;28;20115;-89
2023/02/04 07:56:13;;;;;;;15.45;14.30;;;9.90;99.90;;;;;;5003196;28;20038;-88
2023/02/04 07:58:39;;;;;;;15.02;13.75;;;10.10;99.90;;;;;;5005016;28;20041;-87
2023/02/04 08:01:05;;;;;;;16.48;15.20;;;10.10;99.90;;;;;;5015119;28;20033;-84
2023/02/04 08:03:31;;;;;;;16.33;15.23;;;10.10;99.90;;;;;;5013561;28;20050;-88
2023/02/04 08:05:57;;;;;;;16.95;15.70;;;10.10;99.90;;;;;;5021948;28;20526;-90
2023/02/04 08:08:24;;;;;;;15.98;14.75;;;10.20;99.90;;;;;;5027399;28;20045;-90
2023/02/04 08:10:50;;;;;;;16.48;15.18;;;10.10;99.90;;;;;;4996399;28;20049;-89
2023/02/04 08:13:16;;;;;;;15.23;14.32;;;10.10;99.90;;;;;;5013712;28;20395;-85
2023/02/04 08:15:42;;;;;;;15.63;14.63;;;10.00;99.90;;;;;;5008845;28;20034;-85
2023/02/04 08:18:08;;;;;;;16.33;14.93;;;10.00;99.90;;;;;;5009681;28;20391;-84
2023/02/04 08:20:34;;;;;;;15.57;14.48;;;9.90;99.90;;;;;;5009534;28;20034;-85
2023/02/04 08:23:00;;;;;;;16.30;15.20;;;9.90;99.90;;;;;;4995529;28;20433;-85
2023/02/04 08:25:27;;;;;;;16.10;15.00;;;9.90;99.90;;;;;;5003125;28;20046;-86
2023/02/04 08:27:53;;;;;;;17.23;15.93;;;9.90;99.90;;;;;;5013483;28;20046;-88
2023/02/04 08:30:20;;;;;;;16.52;15.23;;;10.00;99.90;;;;;;5012738;28;20383;-84
2023/02/04 08:32:46;;;;;;;15.52;14.52;;;9.90;99.90;;;;;;4984683;28;20045;-84
2023/02/04 08:35:12;;;;;;;16.15;14.85;;;10.00;99.90;;;;;;5014841;28;20030;-85
2023/02/04 08:37:39;;;;;;;16.10;14.95;;;9.90;99.90;;;;;;4997677;28;20030;-84
2023/02/04 08:40:05;;;;;;;16.20;15.10;;;9.90;99.90;;;;;;5003142;28;20026;-84
2023/02/04 08:42:33;;;;;;;15.93;14.85;;;9.90;99.90;;;;;;4993908;28;20034;-84
2023/02/04 08:45:00;;;;;;;17.05;15.82;;;9.90;99.90;;;;;;5008867;28;20026;-85
2023/02/04 08:47:26;;;;;;;15.88;14.63;;;10.00;99.90;;;;;;4980686;28;20045;-84
2023/02/04 08:49:52;;;;;;;16.10;14.98;;;10.00;99.90;;;;;;5006929;28;20026;-86
2023/02/04 08:52:18;;;;;;;16.23;15.15;;;9.90;99.90;;;;;;5001333;28;20468;-86
2023/02/04 08:54:44;;;;;;;15.52;14.60;;;9.90;99.90;;;;;;4995333;28;20031;-86
2023/02/04 08:57:10;;;;;;;16.02;14.73;;;9.90;99.90;;;;;;5013589;28;20082;-85
2023/02/04 08:59:36;;;;;;;16.27;15.10;;;10.00;99.90;;;;;;5009166;28;20022;-86
2023/02/04 09:02:02;;;;;;;15.00;14.00;;;9.90;99.90;;;;;;4995669;28;20033;-88
2023/02/04 09:04:29;;;;;;;15.35;14.45;;;10.00;99.90;;;;;;5011878;28;20523;-87
2023/02/04 09:06:55;;;;;;;15.77;14.75;;;9.90;99.90;;;;;;4996740;28;20038;-88
2023/02/04 09:09:21;;;;;;;15.90;14.77;;;9.90;99.90;;;;;;5013168;28;20030;-89
2023/02/04 09:11:47;;;;;;;15.60;14.60;;;9.90;99.90;;;;;;4996360;28;20034;-88
2023/02/04 09:14:13;;;;;;;16.05;14.95;;;9.90;99.90;;;;;;5014104;28;20045;-89
2023/02/04 09:16:39;;;;;;;16.10;14.90;;;9.90;99.90;;;;;;5007743;28;20422;-89
2023/02/04 09:19:07;;;;;;;16.80;15.70;;;9.90;99.90;;;;;;4977240;28;20034;-87
2023/02/04 09:21:34;;;;;;;16.45;15.23;;;10.00;99.90;;;;;;4985641;28;20463;-89
2023/02/04 09:24:00;;;;;;;15.80;14.73;;;9.90;99.90;;;;;;5012559;28;20034;-88
2023/02/04 09:26:26;;;;;;;16.08;15.07;;;10.00;99.90;;;;;;4996081;28;20089;-89
2023/02/04 09:28:52;;;;;;;16.83;15.63;;;10.00;99.90;;;;;;5012490;28;20033;-87
2023/02/04 09:31:18;;;;;;;16.60;15.50;;;10.00;99.90;;;;;;5001286;28;20041;-86
2023/02/04 09:33:44;;;;;;;16.15;15.15;;;10.00;99.90;;;;;;5003837;28;20053;-87
2023/02/04 09:36:10;;;;;;;17.40;16.02;;;10.00;99.90;;;;;;5007208;28;20519;-88
2023/02/04 09:38:36;;;;;;;16.45;15.43;;;10.00;99.90;;;;;;5000386;28;20535;-89
2023/02/04 09:41:05;;;;;;;17.17;16.08;;;10.00;99.90;;;;;;5011832;28;20029;-91
2023/02/04 09:43:34;;;;;;;17.98;16.65;;;10.00;99.90;;;;;;5012931;28;20044;-89
2023/02/04 09:46:01;;;;;;;18.13;16.77;;;10.00;99.90;;;;;;5013413;28;20029;-89
2023/02/04 09:48:27;;;;;;;18.02;16.63;;;10.00;99.90;;;;;;5009059;28;20030;-89
2023/02/04 09:51:02;;;;;;;17.00;15.90;;;10.10;99.90;;;;;;4998232;28;20517;-88
2023/02/04 09:53:28;;;;;;;17.35;16.20;;;10.10;99.90;;;;;;4999894;28;20033;-90
2023/02/04 09:55:54;;;;;;;17.20;16.10;;;10.10;99.90;;;;;;4998877;28;20033;-90
2023/02/04 09:58:21;;;;;;;16.80;15.60;;;10.20;99.90;;;;;;5002873;28;20056;-88
2023/02/04 10:00:52;;;;;;;17.98;16.80;;;10.30;99.90;;;;;;4992537;28;20042;-87
2023/02/04 10:03:20;;;;;;;18.15;16.75;;;10.20;99.90;;;;;;5003306;28;20037;-86
2023/02/04 10:05:46;;;;;;;17.15;15.85;;;10.30;99.90;;;;;;5005180;28;20038;-87
2023/02/04 10:08:25;;;;;;;18.35;17.17;;;10.30;99.90;;;;;;4991425;28;20042;-85
2023/02/04 10:10:51;;;;;;;15.85;14.65;;;10.30;99.90;;;;;;5025174;28;20030;-86
2023/02/04 10:13:19;;;;;;;16.35;15.35;;;10.40;99.90;;;;;;5008683;28;20034;-85
2023/02/04 10:15:46;;;;;;;16.90;15.68;;;10.40;99.90;;;;;;4996248;28;20041;-85
2023/02/04 10:18:18;;;;;;;16.73;15.48;;;10.40;99.90;;;;;;4993544;28;20034;-86
2023/02/04 10:20:44;;;;;;;16.20;15.10;;;10.50;99.90;;;;;;5011707;28;20026;-86
2023/02/04 10:23:10;;;;;;;16.95;15.85;;;10.50;99.90;;;;;;5012351;28;20048;-87
2023/02/04 10:25:36;;;;;;;14.95;14.05;;;10.50;99.90;;;;;;5011195;28;20034;-86
2023/02/04 10:28:02;;;;;;;15.23;14.32;;;10.50;99.90;;;;;;5009733;28;20037;-86
2023/02/04 10:30:34;;;;;;;15.13;14.13;;;10.30;99.90;;;;;;5014933;28;20399;-86
2023/02/04 10:33:10;;;;;;;15.38;14.15;;;10.30;99.90;;;;;;5007517;28;20025;-84
2023/02/04 10:35:48;;;;;;;15.00;14.10;;;10.20;99.90;;;;;;5010289;28;20462;-84
2023/02/04 10:38:14;;;;;;;16.70;15.40;;;10.20;99.90;;;;;;5028013;28;20026;-84
2023/02/04 10:40:41;;;;;;;16.15;15.05;;;10.20;99.90;;;;;;5014487;28;20106;-84
2023/02/04 10:43:11;;;;;;;15.07;14.07;;;10.20;99.90;;;;;;5006461;28;20030;-84
2023/02/04 10:45:37;;;;;;;16.60;15.40;;;10.30;99.90;;;;;;5007154;28;20494;-85
2023/02/04 10:48:04;;;;;;;16.25;15.25;;;10.30;99.90;;;;;;4991821;28;20301;-86
2023/02/04 10:50:30;;;;;;;15.88;14.80;;;10.30;99.90;;;;;;4994416;28;20030;-86
2023/02/04 10:55:46;;;;;;;17.80;16.27;;;10.40;99.90;;;;;;5004282;28;20037;-86
2023/02/04 10:58:14;;;;;;;17.10;15.82;;;10.50;99.90;;;;;;4978445;28;20038;-89
2023/02/04 11:00:40;;;;;;;17.27;15.98;;;10.50;99.90;;;;;;4985850;28;20045;-83
2023/02/04 11:03:21;;;;;;;15.90;14.70;;;10.50;99.90;;;;;;4992137;28;20115;-86
2023/02/04 11:05:47;;;;;;;16.83;15.57;;;10.40;99.90;;;;;;4975443;28;20041;-88
2023/02/04 11:08:23;;;;;;;15.00;14.10;;;10.40;99.90;;;;;;5013252;28;20038;-88
2023/02/04 11:11:06;;;;;;;15.38;14.30;;;10.50;99.90;;;;;;5013648;28;20076;-90
2023/02/04 11:13:48;;;;;;;14.98;14.02;;;10.50;99.90;;;;;;4987681;28;20053;-87
2023/02/04 11:16:17;;;;;;;15.32;14.43;;;10.50;99.90;;;;;;4978676;28;20034;-87
2023/02/04 11:18:46;;;;;;;14.68;13.77;;;10.50;99.90;;;;;;5008547;28;20034;-88
2023/02/04 11:21:14;;;;;;;18.10;16.58;;;10.50;99.90;;;;;;5015652;28;20030;-89
2023/02/04 11:23:40;;;;;;;15.68;14.55;;;10.60;99.90;;;;;;4994671;28;20394;-88
2023/02/04 11:26:17;;;;;;;15.18;14.15;;;10.60;99.90;;;;;;4988154;28;20487;-87
2023/02/04 11:28:46;;;;;;;14.70;13.60;;;10.70;99.90;;;;;;5004696;28;20044;-87
2023/02/04 11:31:27;;;;;;;15.73;14.63;;;10.70;99.90;;;;;;5010723;28;20026;-85
2023/02/04 11:34:11;;;;;;;14.65;13.55;;;10.70;99.90;;;;;;4995828;28;20030;-86
2023/02/04 11:36:58;;;;;;;14.68;13.77;;;10.80;99.90;;;;;;4996496;28;20041;-88
2023/02/04 11:39:43;;;;;;;16.77;15.43;;;10.80;99.90;;;;;;5012131;28;20042;-88
2023/02/04 11:42:20;;;;;;;14.75;13.65;;;10.80;99.90;;;;;;4993428;28;20049;-89
2023/02/04 11:44:53;;;;;;;16.13;15.00;;;10.80;99.90;;;;;;4994314;28;20030;-89
2023/02/04 11:47:19;;;;;;;15.63;14.30;;;10.80;99.90;;;;;;5010654;28;20129;-91
2023/02/04 11:49:51;;;;;;;13.88;12.90;;;10.80;99.90;;;;;;4998576;28;20498;-90
2023/02/04 11:52:17;;;;;;;14.40;13.52;;;10.80;99.90;;;;;;4997866;28;20029;-86
2023/02/04 11:54:54;;;;;;;16.80;15.40;;;10.80;99.90;;;;;;5013349;28;20038;-88
2023/02/04 11:57:20;;;;;;;14.65;13.65;;;10.80;99.90;;;;;;4993594;28;20038;-86
2023/02/04 11:59:46;;;;;;;15.20;14.07;;;10.80;99.90;;;;;;4994522;28;20049;-87
2023/02/04 12:02:20;;;;;;;16.08;14.98;;;10.80;99.90;;;;;;4987405;28;20037;-86
2023/02/04 12:04:56;;;;;;;16.08;14.98;;;10.80;99.90;;;;;;4979946;28;20103;-86
2023/02/04 12:07:27;;;;;;;15.73;14.60;;;10.90;99.90;;;;;;4980909;28;20033;-87
2023/02/04 12:09:53;;;;;;;15.68;14.55;;;10.90;99.90;;;;;;4991271;28;20030;-88
2023/02/04 12:12:27;;;;;;;15.68;14.57;;;10.90;99.90;;;;;;4969741;28;20034;-86
2023/02/04 12:15:44;;;;;;;17.10;15.90;;;10.90;99.90;;;;;;4997730;28;20035;-87
2023/02/04 12:18:11;;;;;;;24.33;21.80;;;11.00;99.90;;;;;;5010263;28;20030;-87
2023/02/04 12:20:38;;;;;;;18.92;17.33;;;11.10;99.90;;;;;;5011995;28;20034;-88
2023/02/04 12:23:04;;;;;;;20.30;18.75;;;11.10;99.90;;;;;;4979929;28;20038;-88
2023/02/04 12:25:30;;;;;;;19.17;17.80;;;11.20;99.90;;;;;;5000410;28;20384;-87
2023/02/04 12:27:56;;;;;;;17.25;16.15;;;11.10;99.90;;;;;;4993656;28;20042;-87
2023/02/04 12:30:23;;;;;;;18.15;17.00;;;11.10;99.90;;;;;;4994836;28;20037;-88
2023/02/04 12:32:49;;;;;;;18.05;16.55;;;11.10;99.90;;;;;;4993609;28;20557;-87
2023/02/04 12:35:15;;;;;;;17.25;16.25;;;11.00;99.90;;;;;;4993802;28;20029;-87